Time;durP1;ratioP1;P1;durP2;ratioP2;P2;SDS_P1;SDS_P2;PMS_P1;PMS_P2;Temp;Humidity;BMP_temperature;BMP_pressure;BME280_temperature;BME280_humidity;BME280_pressure;Samples;Min_cycle;Max_cycle;Signal;HPM_P1;HPM_P2
2022/08/27 00:01:39;;;;;;;13.73;12.43;;;;;;;24.01;95.87;100082.72;5055401;28;20470;-70
2022/08/27 00:04:06;;;;;;;13.70;12.30;;;;;;;24.03;95.57;100083.44;5065394;28;20943;-72
2022/08/27 00:06:34;;;;;;;14.13;12.73;;;;;;;23.92;96.42;100080.97;5057916;28;20507;-71
2022/08/27 00:09:01;;;;;;;14.70;13.20;;;;;;;23.84;97.43;100078.19;5056106;28;20529;-70
2022/08/27 00:11:28;;;;;;;16.80;12.23;;;;;;;23.87;97.10;100070.47;5057951;28;20818;-70
2022/08/27 00:13:55;;;;;;;16.63;13.30;;;;;;;23.84;97.46;100076.31;5056752;28;20515;-71
2022/08/27 00:16:24;;;;;;;15.47;13.83;;;;;;;23.84;97.78;100061.69;5069577;28;20490;-71
2022/08/27 00:18:50;;;;;;;14.97;13.33;;;;;;;23.86;96.95;100063.25;5055539;28;20455;-71
2022/08/27 00:21:17;;;;;;;15.47;13.00;;;;;;;23.87;97.04;100067.72;5055489;28;20551;-71
2022/08/27 00:23:44;;;;;;;14.50;12.00;;;;;;;23.78;97.85;100067.84;5055715;28;20806;-71
2022/08/27 00:26:12;;;;;;;12.93;11.60;;;;;;;23.78;98.12;100067.84;5055455;28;20486;-71
2022/08/27 00:28:39;;;;;;;14.30;12.63;;;;;;;23.73;98.59;100069.16;5054501;28;20542;-71
2022/08/27 00:31:06;;;;;;;13.97;12.57;;;;;;;23.76;98.51;100070.75;5054652;28;20822;-70
2022/08/27 00:33:34;;;;;;;14.37;12.40;;;;;;;23.79;98.08;100070.44;5048725;28;20447;-70
2022/08/27 00:36:02;;;;;;;12.80;11.50;;;;;;;23.81;97.65;100073.88;5034944;28;20454;-70
2022/08/27 00:38:28;;;;;;;14.13;12.30;;;;;;;23.79;97.84;100075.94;5034799;28;20499;-71
2022/08/27 00:40:55;;;;;;;12.80;11.50;;;;;;;23.83;97.68;100062.72;5036033;28;20810;-71
2022/08/27 00:43:23;;;;;;;17.63;12.10;;;;;;;23.84;97.85;100064.44;5054000;28;20454;-70
2022/08/27 00:45:52;;;;;;;12.73;11.27;;;;;;;23.81;97.96;100068.38;5037166;28;20807;-70
2022/08/27 00:48:23;;;;;;;12.33;11.10;;;;;;;23.81;98.08;100068.38;5054209;28;20479;-71
2022/08/27 00:50:54;;;;;;;13.47;11.37;;;;;;;23.83;97.33;100071.81;5055150;28;20837;-69
2022/08/27 00:53:24;;;;;;;14.53;12.47;;;;;;;23.81;97.60;100070.25;5052282;28;20455;-69
2022/08/27 00:55:54;;;;;;;13.90;12.20;;;;;;;23.75;98.11;100071.78;5055682;28;20466;-71
2022/08/27 00:58:28;;;;;;;16.27;11.83;;;;;;;23.78;98.09;100068.69;5055405;28;20455;-72
2022/08/27 01:00:55;;;;;;;15.60;12.50;;;;;;;23.72;98.37;100072.06;5054592;28;20479;-70
2022/08/27 01:03:23;;;;;;;14.70;12.27;;;;;;;23.69;98.84;100076.00;5056090;28;20462;-70
2022/08/27 01:05:51;;;;;;;15.20;11.27;;;;;;;23.66;99.18;100072.72;5066407;28;20460;-70
2022/08/27 01:08:20;;;;;;;13.37;11.97;;;;;;;23.66;99.45;100064.47;5060236;28;20598;-70
2022/08/27 01:10:47;;;;;;;14.93;11.70;;;;;;;23.64;99.48;100072.88;5054199;28;20475;-72
2022/08/27 01:13:24;;;;;;;12.47;11.20;;;;;;;23.65;99.46;100071.00;5062213;28;20543;-70
2022/08/27 01:15:52;;;;;;;19.80;12.00;;;;;;;23.59;100.00;100068.91;5055654;28;20455;-71
2022/08/27 01:18:19;;;;;;;19.17;11.80;;;;;;;23.55;100.00;100071.09;5054163;28;20456;-71
2022/08/27 01:20:59;;;;;;;11.67;10.43;;;;;;;23.49;100.00;100069.88;5058305;28;20489;-71
2022/08/27 01:23:34;;;;;;;13.73;11.70;;;;;;;23.43;100.00;100080.66;5054558;28;20452;-71
2022/08/27 01:26:04;;;;;;;13.00;11.37;;;;;;;23.50;100.00;100071.59;5053922;28;20874;-69
2022/08/27 01:28:32;;;;;;;12.20;11.10;;;;;;;23.62;99.19;100082.31;5055863;28;20472;-70
2022/08/27 01:30:59;;;;;;;11.40;10.30;;;;;;;23.65;99.13;100088.38;5058599;28;20510;-71
2022/08/27 01:33:25;;;;;;;14.20;11.77;;;;;;;23.40;100.00;100087.31;5062386;28;20450;-71
2022/08/27 01:35:52;;;;;;;12.93;11.40;;;;;;;23.31;100.00;100085.53;5052217;28;20634;-71
2022/08/27 01:38:20;;;;;;;13.73;12.33;;;;;;;23.32;100.00;100087.25;5054057;28;20531;-70
2022/08/27 01:40:47;;;;;;;14.27;12.83;;;;;;;23.30;100.00;100087.41;5060855;28;20475;-71
2022/08/27 01:43:15;;;;;;;14.60;13.20;;;;;;;23.35;100.00;100089.69;5062571;28;20800;-69
2022/08/27 01:45:47;;;;;;;13.87;12.57;;;;;;;23.30;100.00;100089.31;5058248;28;20489;-70
2022/08/27 01:48:14;;;;;;;13.77;12.43;;;;;;;23.25;100.00;100086.19;5057626;28;20463;-70
2022/08/27 01:50:41;;;;;;;13.57;12.37;;;;;;;23.18;100.00;100080.47;5055012;28;20683;-70
2022/08/27 01:53:12;;;;;;;13.60;12.23;;;;;;;23.22;100.00;100080.97;5057826;28;20835;-70
2022/08/27 01:55:40;;;;;;;14.13;12.63;;;;;;;23.14;100.00;100078.19;5049246;28;20460;-71
2022/08/27 01:58:06;;;;;;;12.63;11.50;;;;;;;23.03;100.00;100069.16;5056821;28;20451;-69
2022/08/27 02:00:37;;;;;;;15.70;12.53;;;;;;;23.06;100.00;100077.06;5062158;28;20472;-71
2022/08/27 02:03:05;;;;;;;14.03;12.07;;;;;;;23.04;100.00;100068.16;5053559;28;20466;-70
2022/08/27 02:05:32;;;;;;;12.37;11.07;;;;;;;23.04;100.00;100068.16;5055050;28;20566;-69
2022/08/27 02:07:58;;;;;;;12.93;11.73;;;;;;;22.99;100.00;100059.50;5060747;28;21058;-70
2022/08/27 02:10:32;;;;;;;13.20;11.80;;;;;;;22.97;100.00;100066.16;5059947;28;20479;-70
2022/08/27 02:12:59;;;;;;;13.10;11.70;;;;;;;22.85;100.00;100052.66;5055051;28;20448;-71
2022/08/27 02:15:26;;;;;;;13.83;11.97;;;;;;;22.86;100.00;100056.25;5061996;28;20473;-70
2022/08/27 02:17:55;;;;;;;15.70;11.73;;;;;;;22.82;100.00;100055.72;5058400;28;20518;-71
2022/08/27 02:20:23;;;;;;;14.70;12.27;;;;;;;22.75;100.00;100057.38;5035646;28;20479;-71
2022/08/27 02:22:49;;;;;;;13.73;12.23;;;;;;;22.73;100.00;100055.81;5062176;28;20447;-70
2022/08/27 02:25:18;;;;;;;14.00;12.50;;;;;;;22.69;100.00;100055.25;5063693;28;20513;-70
2022/08/27 02:27:47;;;;;;;16.20;11.67;;;;;;;22.55;100.00;100062.16;5052398;28;20549;-71
2022/08/27 02:30:16;;;;;;;12.97;11.77;;;;;;;22.45;100.00;100058.59;5052743;28;20986;-71
2022/08/27 02:32:46;;;;;;;12.70;11.53;;;;;;;22.23;100.00;100055.28;5050670;28;20456;-70
2022/08/27 02:35:14;;;;;;;13.90;12.50;;;;;;;22.04;100.00;100058.94;5059402;28;20460;-70
2022/08/27 02:37:40;;;;;;;16.37;12.60;;;;;;;21.92;100.00;100051.94;5055154;28;20824;-69
2022/08/27 02:40:09;;;;;;;13.30;12.00;;;;;;;21.84;100.00;100058.19;5055956;28;20490;-70
2022/08/27 02:42:35;;;;;;;15.03;12.50;;;;;;;21.81;100.00;100065.84;5050528;28;20446;-70
2022/08/27 02:45:02;;;;;;;13.23;11.30;;;;;;;21.65;100.00;100063.72;5057739;28;20455;-70
2022/08/27 02:47:28;;;;;;;16.10;12.60;;;;;;;21.63;100.00;100066.59;5052545;28;20484;-71
2022/08/27 02:49:55;;;;;;;15.83;12.10;;;;;;;21.56;100.00;100064.63;5046066;28;20478;-70
2022/08/27 02:52:23;;;;;;;13.83;12.53;;;;;;;21.52;100.00;100060.44;5054101;28;20459;-70
2022/08/27 02:54:49;;;;;;;14.20;12.50;;;;;;;21.44;100.00;100059.31;5056170;28;20451;-70
2022/08/27 02:57:16;;;;;;;14.00;12.70;;;;;;;21.45;100.00;100066.50;5061474;28;20435;-71
2022/08/27 02:59:42;;;;;;;19.00;13.20;;;;;;;21.41;100.00;100061.47;5049930;28;20482;-70
2022/08/27 03:02:09;;;;;;;14.20;12.80;;;;;;;21.35;100.00;100057.44;5050310;28;20817;-69
2022/08/27 03:04:36;;;;;;;16.50;12.93;;;;;;;21.37;100.00;100066.38;5043191;28;20455;-69
2022/08/27 03:07:03;;;;;;;14.63;13.27;;;;;;;21.35;100.00;100065.66;5057807;28;20485;-69
2022/08/27 03:09:32;;;;;;;14.20;12.70;;;;;;;21.33;100.00;100064.06;5058602;28;20454;-70
2022/08/27 03:11:58;;;;;;;14.40;12.83;;;;;;;21.25;100.00;100059.31;5052525;28;20455;-69
2022/08/27 03:14:25;;;;;;;19.57;14.00;;;;;;;21.21;100.00;100058.75;5049014;28;20832;-69
2022/08/27 03:16:51;;;;;;;14.77;12.80;;;;;;;21.12;100.00;100058.75;5051455;28;20483;-69
2022/08/27 03:19:17;;;;;;;15.50;12.00;;;;;;;21.03;100.00;100055.91;5051811;28;20569;-70
2022/08/27 03:21:44;;;;;;;17.60;13.27;;;;;;;21.02;100.00;100059.63;5055098;28;20455;-70
2022/08/27 03:24:10;;;;;;;15.57;13.07;;;;;;;21.14;100.00;100059.47;5051605;28;20662;-70
2022/08/27 03:26:38;;;;;;;14.73;13.10;;;;;;;21.16;100.00;100051.97;5050795;28;20455;-71
2022/08/27 03:29:06;;;;;;;17.50;13.97;;;;;;;21.16;100.00;100058.31;5055028;28;20586;-71
2022/08/27 03:31:33;;;;;;;15.10;13.50;;;;;;;21.19;100.00;100060.78;5060835;28;20479;-70
2022/08/27 03:34:02;;;;;;;13.97;12.57;;;;;;;21.28;100.00;100059.03;5064399;28;20461;-71
2022/08/27 03:36:31;;;;;;;14.37;12.20;;;;;;;21.38;100.00;100059.00;5064105;28;20455;-70
2022/08/27 03:38:58;;;;;;;15.50;12.20;;;;;;;21.48;100.00;100059.88;5059004;28;20446;-71
2022/08/27 03:41:25;;;;;;;14.07;12.77;;;;;;;21.58;100.00;100054.38;5056625;28;20475;-71
2022/08/27 03:43:53;;;;;;;14.60;13.20;;;;;;;21.67;100.00;100053.50;5063853;28;20451;-70
2022/08/27 03:46:21;;;;;;;14.70;13.00;;;;;;;21.71;100.00;100059.50;5057699;28;20462;-71
2022/08/27 03:48:48;;;;;;;17.50;13.90;;;;;;;21.78;100.00;100052.44;5063221;28;20478;-72
2022/08/27 03:51:15;;;;;;;13.13;11.83;;;;;;;21.73;100.00;100060.22;5056861;28;20483;-72
2022/08/27 03:53:45;;;;;;;14.13;12.57;;;;;;;21.63;100.00;100061.13;5059047;28;20892;-72
2022/08/27 03:56:12;;;;;;;16.80;12.53;;;;;;;21.50;100.00;100062.47;5058399;28;20539;-72
2022/08/27 03:58:39;;;;;;;15.77;12.60;;;;;;;21.54;100.00;100063.91;5065157;28;20444;-71
2022/08/27 04:01:08;;;;;;;14.77;12.53;;;;;;;21.33;100.00;100075.88;5073051;28;20478;-72
2022/08/27 04:03:35;;;;;;;15.00;12.47;;;;;;;21.48;100.00;100064.50;5079220;28;20534;-72
2022/08/27 04:06:02;;;;;;;15.13;13.03;;;;;;;21.63;100.00;100072.09;5078845;28;20492;-73
2022/08/27 04:08:29;;;;;;;16.73;12.87;;;;;;;21.71;100.00;100076.84;5087646;28;20525;-73
2022/08/27 04:10:56;;;;;;;14.93;13.30;;;;;;;21.79;100.00;100073.34;5078764;28;20471;-73
2022/08/27 04:13:23;;;;;;;14.10;12.50;;;;;;;21.81;100.00;100080.41;5077354;28;20465;-73
2022/08/27 04:15:52;;;;;;;14.10;12.80;;;;;;;21.90;100.00;100070.41;5064974;28;20459;-74
2022/08/27 04:18:20;;;;;;;13.53;12.13;;;;;;;22.04;100.00;100075.38;5071049;28;20956;-72
2022/08/27 04:20:48;;;;;;;15.47;13.90;;;;;;;21.90;100.00;100075.03;5071757;28;20494;-72
2022/08/27 04:23:15;;;;;;;13.23;11.93;;;;;;;21.94;100.00;100087.44;5066756;28;20456;-75
2022/08/27 04:25:42;;;;;;;15.73;13.30;;;;;;;22.08;100.00;100084.19;5057683;28;20461;-72
2022/08/27 04:28:10;;;;;;;16.03;13.97;;;;;;;22.16;100.00;100086.16;5064793;28;20898;-71
2022/08/27 04:30:38;;;;;;;14.80;12.40;;;;;;;22.20;100.00;100082.09;5057957;28;20488;-72
2022/08/27 04:33:05;;;;;;;15.57;11.83;;;;;;;22.31;100.00;100084.69;5062199;28;20530;-72
2022/08/27 04:35:33;;;;;;;14.83;11.97;;;;;;;22.45;100.00;100078.69;5057432;28;20458;-74
2022/08/27 04:37:59;;;;;;;13.10;11.90;;;;;;;22.54;100.00;100087.00;5057628;28;20466;-72
2022/08/27 04:41:18;;;;;;;14.20;11.83;;;;;;;22.55;100.00;100089.59;5055541;28;21038;-72
2022/08/27 04:43:14;;;;;;;12.53;11.17;;;;;;;22.62;100.00;100098.94;5052950;28;20455;-72
2022/08/27 04:45:44;;;;;;;14.00;12.00;;;;;;;22.64;100.00;100099.63;5057350;28;20539;-74
2022/08/27 04:48:11;;;;;;;12.10;10.90;;;;;;;22.68;100.00;100095.56;5057315;28;20475;-72
2022/08/27 04:50:41;;;;;;;15.53;11.77;;;;;;;22.70;100.00;100098.13;5054761;28;20809;-71
2022/08/27 04:53:08;;;;;;;12.77;10.73;;;;;;;22.75;100.00;100094.94;5054163;28;20435;-73
2022/08/27 04:55:41;;;;;;;12.90;11.27;;;;;;;22.82;100.00;100099.66;5043735;28;20436;-72
2022/08/27 04:58:07;;;;;;;15.47;12.17;;;;;;;22.81;100.00;100099.81;5036119;28;20444;-74
2022/08/27 05:00:34;;;;;;;12.90;10.70;;;;;;;22.84;100.00;100107.75;5056400;28;20988;-72
2022/08/27 05:03:01;;;;;;;14.47;10.40;;;;;;;22.81;100.00;100103.41;5057026;28;20444;-73
2022/08/27 05:05:28;;;;;;;13.50;10.53;;;;;;;22.81;100.00;100108.03;5038103;28;20452;-73
2022/08/27 05:07:56;;;;;;;14.10;11.10;;;;;;;22.78;100.00;100111.97;5040124;28;20568;-72
2022/08/27 05:10:22;;;;;;;13.70;11.00;;;;;;;22.82;100.00;100107.03;5058989;28;20460;-72
2022/08/27 05:12:49;;;;;;;13.00;10.47;;;;;;;22.81;100.00;100113.53;5054581;28;20817;-72
2022/08/27 05:15:15;;;;;;;11.73;10.53;;;;;;;22.84;100.00;100114.09;5053106;28;20542;-72
2022/08/27 05:17:42;;;;;;;11.23;10.03;;;;;;;22.76;100.00;100110.41;5056854;28;20455;-73
2022/08/27 05:20:10;;;;;;;13.00;10.30;;;;;;;22.72;100.00;100114.47;5061184;28;20555;-73
2022/08/27 05:22:38;;;;;;;12.13;10.37;;;;;;;22.72;100.00;100118.06;5055361;28;20459;-71
2022/08/27 05:25:07;;;;;;;12.13;10.93;;;;;;;22.73;100.00;100121.69;5055347;28;20539;-71
2022/08/27 05:27:35;;;;;;;11.30;10.03;;;;;;;22.71;100.00;100110.88;5061402;28;20895;-71
2022/08/27 05:30:01;;;;;;;11.23;10.03;;;;;;;22.75;100.00;100114.13;5053115;28;20483;-70
2022/08/27 05:32:28;;;;;;;11.63;10.60;;;;;;;22.79;100.00;100113.66;5063277;28;20479;-72
2022/08/27 05:34:54;;;;;;;11.37;10.17;;;;;;;22.89;100.00;100110.88;5058571;28;20463;-71
2022/08/27 05:37:21;;;;;;;12.23;10.37;;;;;;;22.96;100.00;100109.22;5054556;28;20534;-71
2022/08/27 05:39:48;;;;;;;13.70;9.93;;;;;;;23.08;100.00;100118.97;5060267;28;20489;-70
2022/08/27 05:42:16;;;;;;;11.50;10.40;;;;;;;23.02;100.00;100113.25;5055410;28;20835;-72
2022/08/27 05:44:42;;;;;;;10.87;9.77;;;;;;;23.09;100.00;100106.97;5054721;28;20478;-73
2022/08/27 05:47:09;;;;;;;11.60;10.10;;;;;;;23.13;100.00;100099.28;5059024;28;20812;-72
2022/08/27 05:49:36;;;;;;;12.70;9.80;;;;;;;23.23;100.00;100108.31;5037424;28;20475;-72
2022/08/27 05:52:03;;;;;;;14.00;9.40;;;;;;;23.28;100.00;100108.69;5058369;28;20554;-74
2022/08/27 05:54:30;;;;;;;11.37;9.47;;;;;;;23.31;100.00;100108.38;5053434;28;20444;-72
2022/08/27 05:56:56;;;;;;;11.43;9.50;;;;;;;23.25;100.00;100114.50;5053552;28;20448;-72
2022/08/27 06:02:09;;;;;;;12.50;9.73;;;;;;;23.24;100.00;100114.66;5062316;28;21044;-72
2022/08/27 06:04:36;;;;;;;13.33;9.40;;;;;;;23.37;100.00;100123.34;5059681;28;20971;-72
2022/08/27 06:07:05;;;;;;;11.57;10.00;;;;;;;23.33;100.00;100113.69;5054417;28;20440;-72
2022/08/27 06:09:32;;;;;;;12.60;9.30;;;;;;;23.34;100.00;100112.69;5054638;28;20483;-72
2022/08/27 06:11:59;;;;;;;11.40;9.10;;;;;;;23.20;100.00;100116.00;5056289;28;20443;-73
2022/08/27 06:14:28;;;;;;;12.63;9.90;;;;;;;23.16;100.00;100114.59;5055149;28;20964;-73
2022/08/27 06:16:55;;;;;;;13.33;9.90;;;;;;;23.10;100.00;100114.19;5058278;28;20444;-73
2022/08/27 06:19:23;;;;;;;14.40;11.03;;;;;;;23.18;100.00;100112.53;5051399;28;20466;-72
2022/08/27 06:21:50;;;;;;;11.13;9.97;;;;;;;23.22;100.00;100120.31;5052209;28;20447;-73
2022/08/27 06:24:16;;;;;;;15.03;10.10;;;;;;;23.29;100.00;100113.16;5056912;28;20458;-73
2022/08/27 06:26:45;;;;;;;12.40;10.67;;;;;;;23.15;100.00;100119.22;5057889;28;20536;-71
2022/08/27 06:29:13;;;;;;;12.60;9.73;;;;;;;23.27;100.00;100119.84;5061913;28;20478;-73
2022/08/27 06:31:41;;;;;;;13.87;9.87;;;;;;;23.29;100.00;100117.78;5056982;28;20601;-72
2022/08/27 06:34:09;;;;;;;16.90;10.10;;;;;;;23.34;100.00;100126.44;5053030;28;20454;-74
2022/08/27 06:36:38;;;;;;;12.47;10.07;;;;;;;23.30;100.00;100131.38;5053228;28;20471;-72
2022/08/27 06:39:05;;;;;;;12.43;9.60;;;;;;;23.24;100.00;100132.00;5055418;28;20952;-70
2022/08/27 06:41:33;;;;;;;11.60;9.40;;;;;;;23.32;100.00;100136.72;5052699;28;20822;-71
2022/08/27 06:44:00;;;;;;;14.57;10.47;;;;;;;23.09;100.00;100133.59;5051469;28;20452;-72
2022/08/27 06:46:28;;;;;;;10.80;9.37;;;;;;;23.20;100.00;100137.97;5033718;28;20445;-72
2022/08/27 06:48:58;;;;;;;12.93;10.20;;;;;;;23.28;100.00;100130.66;5040287;28;20999;-73
2022/08/27 06:51:27;;;;;;;10.77;9.67;;;;;;;23.08;100.00;100140.09;5053066;28;20463;-71
2022/08/27 06:53:55;;;;;;;10.77;9.50;;;;;;;23.21;100.00;100142.44;5053329;28;20424;-73
2022/08/27 06:56:22;;;;;;;16.73;10.27;;;;;;;23.41;100.00;100149.50;5053317;28;20440;-73
2022/08/27 06:58:52;;;;;;;12.37;9.97;;;;;;;23.44;99.16;100143.69;5052412;28;20446;-72
2022/08/27 07:01:21;;;;;;;12.60;10.83;;;;;;;23.38;99.43;100155.31;5052876;28;20467;-72
2022/08/27 07:03:49;;;;;;;12.00;10.83;;;;;;;23.35;99.96;100154.75;5052882;28;20513;-72
2022/08/27 07:06:17;;;;;;;11.40;10.23;;;;;;;23.48;99.72;100149.72;5055653;28;20454;-70
2022/08/27 07:08:45;;;;;;;14.70;10.70;;;;;;;23.68;97.26;100158.66;5058938;28;20510;-71
2022/08/27 07:11:13;;;;;;;12.27;10.97;;;;;;;23.79;96.26;100152.94;5074494;28;20462;-72
2022/08/27 07:13:40;;;;;;;11.63;10.50;;;;;;;24.00;94.22;100148.94;5054585;28;20501;-70
2022/08/27 07:16:10;;;;;;;15.00;10.10;;;;;;;24.02;93.30;100142.25;5054652;28;20455;-72
2022/08/27 07:18:38;;;;;;;13.30;11.07;;;;;;;23.98;93.29;100145.47;5054520;28;20447;-70
2022/08/27 07:21:05;;;;;;;14.30;11.90;;;;;;;24.23;91.62;100136.31;5053853;28;20486;-70
2022/08/27 07:23:34;;;;;;;12.93;9.87;;;;;;;24.59;88.64;100147.19;5054122;28;20439;-72
2022/08/27 07:26:01;;;;;;;14.50;9.10;;;;;;;24.70;87.31;100144.13;5054498;28;20936;-72
2022/08/27 07:28:28;;;;;;;11.27;10.07;;;;;;;24.87;85.84;100138.66;5053465;28;20533;-69
2022/08/27 07:30:55;;;;;;;11.07;9.80;;;;;;;25.00;84.22;100141.78;5053262;28;20481;-73
2022/08/27 07:33:21;;;;;;;15.50;9.37;;;;;;;25.26;82.78;100147.19;5055423;28;20478;-71
2022/08/27 07:35:48;;;;;;;10.40;8.47;;;;;;;25.28;81.52;100147.88;5054074;28;20526;-73
2022/08/27 07:38:15;;;;;;;10.13;8.40;;;;;;;25.62;80.28;100141.34;5052351;28;20460;-71
2022/08/27 07:40:43;;;;;;;10.00;8.70;;;;;;;25.84;77.95;100142.50;5054307;28;20546;-72
2022/08/27 07:45:56;;;;;;;12.03;7.70;;;;;;;26.17;75.68;100153.50;5053307;28;20537;-71
2022/08/27 07:48:23;;;;;;;12.47;8.20;;;;;;;26.15;75.20;100161.09;5055937;28;20463;-72
2022/08/27 07:50:50;;;;;;;9.50;8.17;;;;;;;26.38;73.88;100159.28;5052388;28;20475;-71
2022/08/27 07:53:17;;;;;;;9.40;7.90;;;;;;;26.67;71.35;100156.97;5038060;28;20550;-72
2022/08/27 07:55:45;;;;;;;8.23;6.90;;;;;;;27.08;70.14;100156.72;5057448;28;20450;-71
2022/08/27 07:58:12;;;;;;;8.20;7.10;;;;;;;27.77;65.76;100160.34;5049445;28;20464;-71
2022/08/27 08:00:41;;;;;;;12.63;7.00;;;;;;;28.01;64.51;100164.78;5059953;28;20839;-71
2022/08/27 08:03:07;;;;;;;8.90;7.53;;;;;;;27.74;64.47;100162.63;5052157;28;20908;-70
2022/08/27 08:05:34;;;;;;;8.53;7.00;;;;;;;27.44;66.40;100166.16;5055070;28;20463;-73
2022/08/27 08:08:01;;;;;;;9.10;7.40;;;;;;;27.41;66.72;100161.00;5058211;28;20460;-71
2022/08/27 08:10:27;;;;;;;8.03;7.20;;;;;;;27.59;65.54;100160.69;5051551;28;20482;-72
2022/08/27 08:12:55;;;;;;;7.10;6.40;;;;;;;28.30;63.29;100165.00;5052007;28;20838;-71
2022/08/27 08:15:22;;;;;;;9.30;6.13;;;;;;;29.37;58.33;100161.69;5061371;28;20459;-70
2022/08/27 08:17:48;;;;;;;9.27;6.27;;;;;;;30.37;54.85;100163.41;5057160;28;20498;-73
2022/08/27 08:20:18;;;;;;;5.93;4.93;;;;;;;31.61;50.09;100169.84;5058750;28;20473;-72
2022/08/27 08:22:46;;;;;;;7.27;6.20;;;;;;;32.18;48.45;100172.00;5062362;28;20465;-73
2022/08/27 08:25:12;;;;;;;6.50;5.63;;;;;;;32.29;46.99;100169.59;5054863;28;20459;-75
2022/08/27 08:27:39;;;;;;;7.13;5.70;;;;;;;32.25;47.59;100172.00;5058439;28;20522;-69
2022/08/27 08:30:10;;;;;;;6.03;5.00;;;;;;;32.95;45.60;100174.16;5065767;28;20573;-71
2022/08/27 08:32:38;;;;;;;5.03;4.53;;;;;;;32.68;45.74;100176.19;5078979;28;20967;-69
2022/08/27 08:35:06;;;;;;;5.20;4.70;;;;;;;32.97;44.90;100175.63;5066817;28;20451;-70
2022/08/27 08:37:32;;;;;;;7.43;5.30;;;;;;;33.60;43.26;100179.56;5059832;28;21044;-72
2022/08/27 08:39:59;;;;;;;5.23;4.70;;;;;;;33.67;42.75;100188.75;5060442;28;20467;-72
2022/08/27 08:42:31;;;;;;;6.37;5.77;;;;;;;33.69;42.57;100180.16;5054817;28;21016;-71
2022/08/27 08:45:01;;;;;;;5.80;5.23;;;;;;;33.54;42.76;100184.13;5056170;28;20593;-72
2022/08/27 08:47:31;;;;;;;5.30;4.70;;;;;;;34.33;41.33;100186.47;5056712;28;20482;-71
2022/08/27 08:50:04;;;;;;;4.60;4.20;;;;;;;34.67;39.88;100185.06;5060197;28;20623;-72
2022/08/27 08:52:42;;;;;;;5.03;4.53;;;;;;;33.13;42.93;100187.38;5059356;28;20446;-71
2022/08/27 08:55:25;;;;;;;5.17;4.77;;;;;;;32.67;44.48;100185.63;5063086;28;20534;-71
2022/08/27 08:57:58;;;;;;;6.77;4.70;;;;;;;33.16;43.46;100185.00;5034840;28;20431;-70
2022/08/27 09:00:25;;;;;;;7.53;5.00;;;;;;;33.87;42.17;100177.44;5042395;28;20475;-71
2022/08/27 09:02:54;;;;;;;5.30;4.80;;;;;;;34.98;40.11;100188.75;5056313;28;20462;-70
2022/08/27 09:05:22;;;;;;;5.27;3.93;;;;;;;34.40;40.46;100184.50;5054706;28;20940;-72
2022/08/27 09:07:54;;;;;;;5.00;4.50;;;;;;;33.74;41.73;100181.22;5053670;28;20456;-72
2022/08/27 09:10:31;;;;;;;5.10;4.60;;;;;;;33.23;43.01;100179.38;5059007;28;20491;-71
2022/08/27 09:13:02;;;;;;;4.70;4.30;;;;;;;31.93;46.15;100184.81;5055534;28;20432;-71
2022/08/27 09:15:31;;;;;;;5.27;4.77;;;;;;;31.17;48.27;100180.44;5058238;28;20460;-72
2022/08/27 09:18:07;;;;;;;5.07;4.40;;;;;;;30.53;49.61;100174.19;5054741;28;20464;-71
2022/08/27 09:20:35;;;;;;;6.00;4.97;;;;;;;30.58;49.61;100181.03;5062114;28;20479;-72
2022/08/27 09:23:11;;;;;;;7.20;5.20;;;;;;;30.36;50.68;100186.69;5056745;28;20436;-71
2022/08/27 09:25:40;;;;;;;5.67;4.73;;;;;;;29.86;52.50;100188.63;5048851;28;20439;-71
2022/08/27 09:29:14;;;;;;;6.30;5.20;;;;;;;29.79;52.53;100188.59;5054306;28;20446;-71
2022/08/27 09:31:03;;;;;;;5.67;5.10;;;;;;;29.65;52.70;100184.81;5062692;28;20485;-71
2022/08/27 09:33:31;;;;;;;7.57;6.90;;;;;;;29.49;53.94;100177.59;5055322;28;20554;-72
2022/08/27 09:36:02;;;;;;;6.00;5.40;;;;;;;29.47;53.91;100184.41;5062744;28;20439;-70
2022/08/27 09:38:31;;;;;;;5.50;5.00;;;;;;;29.16;55.32;100177.25;5056237;28;20948;-70
2022/08/27 09:41:01;;;;;;;7.77;6.30;;;;;;;28.81;56.71;100184.47;5059992;28;20477;-70
2022/08/27 09:43:30;;;;;;;6.20;5.70;;;;;;;28.44;57.89;100189.91;5056931;28;20459;-70
2022/08/27 09:46:00;;;;;;;5.50;5.00;;;;;;;28.15;59.14;100192.69;5060519;28;20455;-69
2022/08/27 09:48:29;;;;;;;6.10;5.07;;;;;;;27.98;60.50;100194.78;5062137;28;20462;-70
2022/08/27 09:51:00;;;;;;;6.20;5.27;;;;;;;27.70;61.00;100194.47;5053622;28;20515;-71
2022/08/27 09:53:30;;;;;;;5.43;4.93;;;;;;;27.48;61.75;100191.53;5055898;28;20454;-71
2022/08/27 09:55:59;;;;;;;5.80;5.30;;;;;;;27.53;61.68;100191.00;5054951;28;20463;-67
2022/08/27 09:58:30;;;;;;;6.30;5.50;;;;;;;27.48;62.19;100193.47;5056029;28;20478;-70
2022/08/27 10:01:03;;;;;;;7.70;5.33;;;;;;;27.78;61.50;100181.41;5061383;28;20475;-70
2022/08/27 10:03:30;;;;;;;6.30;5.43;;;;;;;27.81;61.13;100183.84;5057637;28;20969;-70
2022/08/27 10:05:58;;;;;;;6.23;5.53;;;;;;;27.97;60.48;100180.09;5054760;28;20814;-71
2022/08/27 10:08:29;;;;;;;5.83;5.23;;;;;;;27.81;60.60;100182.94;5054660;28;20444;-70
2022/08/27 10:10:59;;;;;;;9.87;7.93;;;;;;;28.18;59.78;100182.09;5062148;28;20491;-70
2022/08/27 10:13:37;;;;;;;8.30;7.50;;;;;;;28.83;56.88;100177.72;5060891;28;20440;-71
2022/08/27 10:16:41;;;;;;;7.50;5.47;;;;;;;29.34;55.35;100175.97;5059869;28;20436;-72
2022/08/27 10:19:18;;;;;;;5.70;4.53;;;;;;;29.62;54.01;100182.41;5057393;28;20475;-70
2022/08/27 10:21:54;;;;;;;7.53;5.60;;;;;;;29.81;53.43;100178.13;5057495;28;20447;-70
2022/08/27 10:24:40;;;;;;;5.70;5.20;;;;;;;29.58;54.24;100183.00;5054141;28;21039;-71
2022/08/27 10:27:16;;;;;;;5.43;4.93;;;;;;;28.93;55.88;100179.31;5069438;28;20488;-69
2022/08/27 10:29:50;;;;;;;5.60;4.70;;;;;;;28.42;58.15;100186.47;5072513;28;20486;-70
2022/08/27 10:32:34;;;;;;;4.43;4.00;;;;;;;28.32;58.48;100183.16;5067394;28;20471;-69
2022/08/27 10:35:10;;;;;;;6.77;5.13;;;;;;;28.42;57.90;100180.09;5048419;28;20482;-71
2022/08/27 10:37:45;;;;;;;6.30;4.50;;;;;;;28.46;57.61;100187.81;5052614;28;20501;-71
2022/08/27 10:40:19;;;;;;;5.90;5.40;;;;;;;28.57;57.66;100171.81;5069685;28;20482;-70
2022/08/27 10:42:59;;;;;;;5.20;4.70;;;;;;;28.62;57.24;100174.88;5073246;28;20795;-71
2022/08/27 10:45:41;;;;;;;5.70;4.43;;;;;;;28.79;56.75;100178.28;5063470;28;20454;-71
2022/08/27 10:48:22;;;;;;;5.90;5.37;;;;;;;28.69;56.72;100178.56;5052603;28;20439;-68
2022/08/27 10:50:53;;;;;;;5.43;4.90;;;;;;;29.05;55.37;100166.66;5051894;28;20999;-71
2022/08/27 10:53:30;;;;;;;8.53;5.50;;;;;;;29.04;55.54;100179.66;5056729;28;20865;-73
2022/08/27 10:56:08;;;;;;;8.03;5.60;;;;;;;29.03;55.55;100179.84;5057752;28;20435;-75
2022/08/27 10:58:53;;;;;;;5.33;4.83;;;;;;;28.75;55.24;100172.25;5057871;28;20868;-70
2022/08/27 11:01:26;;;;;;;6.20;5.60;;;;;;;28.96;55.50;100174.22;5069240;28;20503;-71
2022/08/27 11:03:58;;;;;;;6.03;5.33;;;;;;;29.10;54.78;100166.94;5068945;28;20443;-73
2022/08/27 11:06:30;;;;;;;7.43;5.83;;;;;;;29.22;54.38;100176.47;5065783;28;20772;-72
2022/08/27 11:09:02;;;;;;;6.40;4.83;;;;;;;29.77;52.58;100171.25;5056433;28;20448;-73
2022/08/27 11:11:36;;;;;;;6.77;4.97;;;;;;;29.75;51.74;100169.75;5065938;28;20631;-71
2022/08/27 11:14:08;;;;;;;6.37;4.80;;;;;;;30.00;51.24;100168.25;5064604;28;20467;-72
2022/08/27 11:16:41;;;;;;;6.20;5.67;;;;;;;30.22;51.05;100170.97;5054743;28;20458;-74
2022/08/27 11:19:16;;;;;;;5.10;4.60;;;;;;;30.34;50.23;100166.56;5054693;28;20866;-73
2022/08/27 11:21:50;;;;;;;5.53;5.03;;;;;;;30.06;50.92;100164.66;5045587;28;20448;-74
2022/08/27 11:24:27;;;;;;;5.67;5.27;;;;;;;29.51;52.03;100158.00;5060908;28;20470;-74
2022/08/27 11:27:01;;;;;;;5.83;5.20;;;;;;;29.56;52.59;100161.03;5052109;28;20992;-73